Time;durP1;ratioP1;P1;durP2;ratioP2;P2;SDS_P1;SDS_P2;PMS_P1;PMS_P2;Temp;Humidity;BMP_temperature;BMP_pressure;BME280_temperature;BME280_humidity;BME280_pressure;Samples;Min_cycle;Max_cycle;Signal;HPM_P1;HPM_P2
2022/03/04 00:01:57;;;;;;;25.02;19.67;;;;;;;;;;4982083;28;20043;-67
2022/03/04 00:04:26;;;;;;;25.55;18.95;;;;;;;;;;4992722;28;20502;-67
2022/03/04 00:06:54;;;;;;;24.98;19.30;;;;;;;;;;4984432;28;20414;-66
2022/03/04 00:09:24;;;;;;;26.58;19.52;;;;;;;;;;4984125;28;20045;-67
2022/03/04 00:11:53;;;;;;;23.27;18.88;;;;;;;;;;4971561;28;20541;-67
2022/03/04 00:14:21;;;;;;;23.27;18.05;;;;;;;;;;4990844;28;20108;-67
2022/03/04 00:16:50;;;;;;;23.10;18.98;;;;;;;;;;4984386;28;20054;-66
2022/03/04 00:19:18;;;;;;;24.33;17.25;;;;;;;;;;4985513;28;20501;-66
2022/03/04 00:21:49;;;;;;;25.30;18.95;;;;;;;;;;4980561;28;20058;-66
2022/03/04 00:24:20;;;;;;;26.08;19.13;;;;;;;;;;4983989;28;20045;-67
2022/03/04 00:26:50;;;;;;;25.20;19.92;;;;;;;;;;4987942;28;20181;-67
2022/03/04 00:29:19;;;;;;;26.30;18.63;;;;;;;;;;4977036;28;20117;-67
2022/03/04 00:31:48;;;;;;;19.75;17.05;;;;;;;;;;4983384;28;20124;-67
2022/03/04 00:34:16;;;;;;;24.48;19.25;;;;;;;;;;4982106;28;20051;-66
2022/03/04 00:36:45;;;;;;;28.15;19.90;;;;;;;;;;4980300;28;20472;-67
2022/03/04 00:39:13;;;;;;;29.15;21.02;;;;;;;;;;4982483;28;20047;-66
2022/03/04 00:41:42;;;;;;;26.85;19.58;;;;;;;;;;4984134;28;20437;-66
2022/03/04 00:44:11;;;;;;;29.85;22.95;;;;;;;;;;4988979;28;20031;-66
2022/03/04 00:46:39;;;;;;;28.95;20.45;;;;;;;;;;4979675;28;20593;-66
2022/03/04 00:49:09;;;;;;;35.42;22.13;;;;;;;;;;4989793;28;21054;-67
2022/03/04 00:51:39;;;;;;;32.35;23.67;;;;;;;;;;4978729;28;20491;-67
2022/03/04 00:54:08;;;;;;;32.47;23.27;;;;;;;;;;4967500;28;20066;-67
2022/03/04 00:56:38;;;;;;;33.00;24.13;;;;;;;;;;4994613;28;20039;-68
2022/03/04 00:59:06;;;;;;;29.83;21.67;;;;;;;;;;4977114;28;20418;-68
2022/03/04 01:01:33;;;;;;;34.00;22.50;;;;;;;;;;4977158;28;20047;-68
2022/03/04 01:04:02;;;;;;;29.23;23.40;;;;;;;;;;4993960;28;20541;-67
2022/03/04 01:06:30;;;;;;;32.63;23.83;;;;;;;;;;4978296;28;20066;-67
2022/03/04 01:08:58;;;;;;;31.13;24.23;;;;;;;;;;4994520;28;20118;-67
2022/03/04 01:11:25;;;;;;;38.50;23.23;;;;;;;;;;5010957;28;20121;-70
2022/03/04 01:13:53;;;;;;;31.02;23.27;;;;;;;;;;5011300;28;20512;-69
2022/03/04 01:16:20;;;;;;;34.03;23.75;;;;;;;;;;4983511;28;20062;-69
2022/03/04 01:18:48;;;;;;;30.08;23.60;;;;;;;;;;4995797;28;20046;-67
2022/03/04 01:21:15;;;;;;;32.95;22.30;;;;;;;;;;5001659;28;20049;-66
2022/03/04 01:23:44;;;;;;;31.75;22.70;;;;;;;;;;4978525;28;20810;-67
2022/03/04 01:26:13;;;;;;;32.67;24.35;;;;;;;;;;4990108;28;20073;-67
2022/03/04 01:28:42;;;;;;;39.53;24.45;;;;;;;;;;4995258;28;20050;-67
2022/03/04 01:31:12;;;;;;;32.65;24.88;;;;;;;;;;4994584;28;20058;-67
2022/03/04 01:33:40;;;;;;;33.85;24.98;;;;;;;;;;4995526;28;20054;-67
2022/03/04 01:36:07;;;;;;;33.45;23.08;;;;;;;;;;4994327;28;20042;-67
2022/03/04 01:38:35;;;;;;;32.83;24.67;;;;;;;;;;4995188;28;20131;-67
2022/03/04 01:41:03;;;;;;;31.27;24.23;;;;;;;;;;4995361;28;20513;-67
2022/03/04 01:43:31;;;;;;;34.22;25.88;;;;;;;;;;4994560;28;20516;-67
2022/03/04 01:46:14;;;;;;;38.78;27.60;;;;;;;;;;4995570;28;20072;-67
2022/03/04 01:48:44;;;;;;;43.45;29.52;;;;;;;;;;4995800;28;20049;-67
2022/03/04 01:51:12;;;;;;;42.58;28.52;;;;;;;;;;4994900;28;20097;-67
2022/03/04 01:53:41;;;;;;;39.78;27.25;;;;;;;;;;4995780;28;20061;-67
2022/03/04 01:56:08;;;;;;;42.53;29.60;;;;;;;;;;4994159;28;20138;-68
2022/03/04 01:58:36;;;;;;;43.50;31.15;;;;;;;;;;4993879;28;20050;-67
2022/03/04 02:01:05;;;;;;;48.53;31.88;;;;;;;;;;4993583;28;20251;-67
2022/03/04 02:03:33;;;;;;;42.85;31.23;;;;;;;;;;4995177;28;20058;-66
2022/03/04 02:06:02;;;;;;;41.95;29.95;;;;;;;;;;4974685;28;20062;-68
2022/03/04 02:08:29;;;;;;;41.42;28.83;;;;;;;;;;4991391;28;20059;-67
2022/03/04 02:10:58;;;;;;;47.90;32.15;;;;;;;;;;4990316;28;20098;-68
2022/03/04 02:13:25;;;;;;;41.25;29.58;;;;;;;;;;4974878;28;20055;-67
2022/03/04 02:15:53;;;;;;;42.65;29.85;;;;;;;;;;4987155;28;20056;-67
2022/03/04 02:18:20;;;;;;;38.90;28.88;;;;;;;;;;4995325;28;20066;-68
2022/03/04 02:20:49;;;;;;;37.28;29.20;;;;;;;;;;5009917;28;20125;-69
2022/03/04 02:23:17;;;;;;;42.42;30.33;;;;;;;;;;4995130;28;20501;-66
2022/03/04 02:25:48;;;;;;;37.83;27.10;;;;;;;;;;5010212;28;20085;-69
2022/03/04 02:28:17;;;;;;;38.28;28.30;;;;;;;;;;4975617;28;20051;-69
2022/03/04 02:30:45;;;;;;;39.38;28.67;;;;;;;;;;4974340;28;20050;-69
2022/03/04 02:33:12;;;;;;;36.90;28.73;;;;;;;;;;4975801;28;20487;-68
2022/03/04 02:35:41;;;;;;;44.58;29.65;;;;;;;;;;4975627;28;20134;-69
2022/03/04 02:38:09;;;;;;;44.30;31.02;;;;;;;;;;4975200;28;20065;-69
2022/03/04 02:40:36;;;;;;;42.03;31.27;;;;;;;;;;4975844;28;20046;-69
2022/03/04 02:43:04;;;;;;;42.17;30.20;;;;;;;;;;4974219;28;20050;-66
2022/03/04 02:45:32;;;;;;;42.17;29.98;;;;;;;;;;4982246;28;20089;-69
2022/03/04 02:48:00;;;;;;;46.78;32.75;;;;;;;;;;4984377;28;20133;-69
2022/03/04 02:50:27;;;;;;;44.28;31.60;;;;;;;;;;4984587;28;20494;-69
2022/03/04 02:52:56;;;;;;;41.55;31.98;;;;;;;;;;4973978;28;20169;-69
2022/03/04 02:55:23;;;;;;;45.53;32.58;;;;;;;;;;4975188;28;20051;-68
2022/03/04 02:57:51;;;;;;;43.67;31.73;;;;;;;;;;4973795;28;20081;-67
2022/03/04 03:00:18;;;;;;;41.20;31.20;;;;;;;;;;4974669;28;20058;-69
2022/03/04 03:02:46;;;;;;;40.97;29.42;;;;;;;;;;4974513;28;20043;-69
2022/03/04 03:05:14;;;;;;;41.55;30.45;;;;;;;;;;4974647;28;20065;-67
2022/03/04 03:07:41;;;;;;;47.88;34.40;;;;;;;;;;4974083;28;20074;-69
2022/03/04 03:10:10;;;;;;;39.33;31.15;;;;;;;;;;4975194;28;20426;-69
2022/03/04 03:12:40;;;;;;;44.03;32.40;;;;;;;;;;4991305;28;20042;-68
2022/03/04 03:15:08;;;;;;;42.75;31.52;;;;;;;;;;4993813;28;20125;-68
2022/03/04 03:17:37;;;;;;;45.50;31.83;;;;;;;;;;4993451;28;20054;-68
2022/03/04 03:20:07;;;;;;;49.30;32.08;;;;;;;;;;4992787;28;20054;-68
2022/03/04 03:22:35;;;;;;;41.28;32.10;;;;;;;;;;4993797;28;20132;-68
2022/03/04 03:25:04;;;;;;;44.80;34.20;;;;;;;;;;4993699;28;20509;-68
2022/03/04 03:27:31;;;;;;;40.15;31.40;;;;;;;;;;4993389;28;20051;-68
2022/03/04 03:29:59;;;;;;;49.50;33.50;;;;;;;;;;4991486;28;20050;-69
2022/03/04 03:32:26;;;;;;;45.33;33.90;;;;;;;;;;4992530;28;20544;-69
2022/03/04 03:34:54;;;;;;;47.67;35.22;;;;;;;;;;4993085;28;20145;-69
2022/03/04 03:37:21;;;;;;;46.33;33.35;;;;;;;;;;4992743;28;20525;-69
2022/03/04 03:39:48;;;;;;;43.60;32.17;;;;;;;;;;4993744;28;20157;-68
2022/03/04 03:42:15;;;;;;;44.92;35.40;;;;;;;;;;4993941;28;20046;-69
2022/03/04 03:44:43;;;;;;;49.38;36.50;;;;;;;;;;4993545;28;20050;-69
2022/03/04 03:47:11;;;;;;;44.25;33.08;;;;;;;;;;4993921;28;20564;-68
2022/03/04 03:49:39;;;;;;;44.42;34.85;;;;;;;;;;4985418;28;20054;-68
2022/03/04 03:52:06;;;;;;;48.00;33.63;;;;;;;;;;4974819;28;20050;-69
2022/03/04 03:54:33;;;;;;;47.95;33.90;;;;;;;;;;4974313;28;20157;-68
2022/03/04 03:57:01;;;;;;;47.53;35.65;;;;;;;;;;4974613;28;20101;-67
2022/03/04 03:59:28;;;;;;;48.83;36.20;;;;;;;;;;4985753;28;20078;-68
2022/03/04 04:01:55;;;;;;;51.58;38.30;;;;;;;;;;5008489;28;20133;-67
2022/03/04 04:04:24;;;;;;;49.00;35.85;;;;;;;;;;4983878;28;20517;-68
2022/03/04 04:06:51;;;;;;;54.35;37.88;;;;;;;;;;4974569;28;20054;-69
2022/03/04 04:09:19;;;;;;;50.15;37.80;;;;;;;;;;4992025;28;20114;-68
2022/03/04 04:11:47;;;;;;;54.35;37.53;;;;;;;;;;4982979;28;20410;-68
2022/03/04 04:14:14;;;;;;;45.60;34.90;;;;;;;;;;4973118;28;20071;-68
2022/03/04 04:16:42;;;;;;;47.40;36.15;;;;;;;;;;4990868;28;20105;-68
2022/03/04 04:19:09;;;;;;;49.28;37.13;;;;;;;;;;5011795;28;20073;-68
2022/03/04 04:21:38;;;;;;;54.83;38.63;;;;;;;;;;4977365;28;20502;-68
2022/03/04 04:24:06;;;;;;;56.38;36.58;;;;;;;;;;4977318;28;20058;-67
2022/03/04 04:26:33;;;;;;;51.30;40.10;;;;;;;;;;4980724;28;20461;-68
2022/03/04 04:29:02;;;;;;;51.92;38.75;;;;;;;;;;4997295;28;20081;-68
2022/03/04 04:31:32;;;;;;;55.03;40.60;;;;;;;;;;4997129;28;20058;-68
2022/03/04 04:34:00;;;;;;;51.92;39.92;;;;;;;;;;4997232;28;20046;-67
2022/03/04 04:36:28;;;;;;;57.95;43.17;;;;;;;;;;4984785;28;20054;-68
2022/03/04 04:38:56;;;;;;;51.13;40.45;;;;;;;;;;4994161;28;20046;-69
2022/03/04 04:41:23;;;;;;;58.58;43.22;;;;;;;;;;4991142;28;20410;-68
2022/03/04 04:43:51;;;;;;;52.75;36.88;;;;;;;;;;4969250;28;20053;-68
2022/03/04 04:46:18;;;;;;;49.55;39.30;;;;;;;;;;4978029;28;20085;-68
2022/03/04 04:48:46;;;;;;;48.70;38.80;;;;;;;;;;4989427;28;20570;-68
2022/03/04 04:51:13;;;;;;;58.67;40.22;;;;;;;;;;4989309;28;20046;-68
2022/03/04 04:53:40;;;;;;;49.08;36.88;;;;;;;;;;4989211;28;20133;-69
2022/03/04 04:56:08;;;;;;;49.90;36.53;;;;;;;;;;4977803;28;20055;-69
2022/03/04 04:58:36;;;;;;;46.42;36.80;;;;;;;;;;4991454;28;20078;-68
2022/03/04 05:01:04;;;;;;;54.22;39.72;;;;;;;;;;4980217;28;20097;-68
2022/03/04 05:03:32;;;;;;;51.03;37.50;;;;;;;;;;4989001;28;20050;-68
2022/03/04 05:05:59;;;;;;;46.92;36.67;;;;;;;;;;4988734;28;20100;-68
2022/03/04 05:08:27;;;;;;;49.28;36.50;;;;;;;;;;4989011;28;20050;-67
2022/03/04 05:10:57;;;;;;;49.33;37.15;;;;;;;;;;4977117;28;20494;-68
2022/03/04 05:13:24;;;;;;;49.53;38.95;;;;;;;;;;4977488;28;20447;-68
2022/03/04 05:15:51;;;;;;;54.75;39.00;;;;;;;;;;4988880;28;20051;-68
2022/03/04 05:18:18;;;;;;;53.78;38.03;;;;;;;;;;4977557;28;20122;-68
2022/03/04 05:20:46;;;;;;;49.22;39.25;;;;;;;;;;4989039;28;20450;-68
2022/03/04 05:23:58;;;;;;;44.20;35.45;;;;;;;;;;4976924;28;20395;-68
2022/03/04 05:26:04;;;;;;;42.00;32.20;;;;;;;;;;4988288;28;20074;-67
2022/03/04 05:28:32;;;;;;;46.38;35.42;;;;;;;;;;4994228;28;20568;-67
2022/03/04 05:31:00;;;;;;;45.55;34.22;;;;;;;;;;4994624;28;20042;-68
2022/03/04 05:33:28;;;;;;;45.45;33.53;;;;;;;;;;4996080;28;20093;-68
2022/03/04 05:35:55;;;;;;;44.53;32.45;;;;;;;;;;4994691;28;20050;-68
2022/03/04 05:38:23;;;;;;;44.17;32.20;;;;;;;;;;4994658;28;20453;-67
2022/03/04 05:40:50;;;;;;;45.33;31.77;;;;;;;;;;4995999;28;20053;-67
2022/03/04 05:43:18;;;;;;;45.95;32.65;;;;;;;;;;4994325;28;20072;-67
2022/03/04 05:45:45;;;;;;;50.75;34.10;;;;;;;;;;4982062;28;20051;-67
2022/03/04 05:48:13;;;;;;;47.80;34.13;;;;;;;;;;4975289;28;20073;-68
2022/03/04 05:50:40;;;;;;;51.83;36.97;;;;;;;;;;4976517;28;20042;-67
2022/03/04 05:53:07;;;;;;;51.38;37.65;;;;;;;;;;4975089;28;20050;-67
2022/03/04 05:55:34;;;;;;;52.83;37.65;;;;;;;;;;4975138;28;20093;-67
2022/03/04 05:58:01;;;;;;;52.65;37.95;;;;;;;;;;4976078;28;20134;-67
2022/03/04 06:00:28;;;;;;;50.85;36.08;;;;;;;;;;4990978;28;20137;-67
2022/03/04 06:02:57;;;;;;;45.38;34.47;;;;;;;;;;4974897;28;20061;-67
2022/03/04 06:05:24;;;;;;;46.17;36.03;;;;;;;;;;4990861;28;20054;-67
2022/03/04 06:07:51;;;;;;;43.40;35.35;;;;;;;;;;4989951;28;20055;-67
2022/03/04 06:10:19;;;;;;;44.70;36.33;;;;;;;;;;4985773;28;20057;-67
2022/03/04 06:12:47;;;;;;;48.40;37.85;;;;;;;;;;4993678;28;20053;-67
2022/03/04 06:15:14;;;;;;;50.30;37.08;;;;;;;;;;4988814;28;20057;-67
2022/03/04 06:17:49;;;;;;;51.42;36.30;;;;;;;;;;4976058;28;20054;-67
2022/03/04 06:20:17;;;;;;;47.92;36.13;;;;;;;;;;4975945;28;20051;-67
2022/03/04 06:22:45;;;;;;;51.30;36.17;;;;;;;;;;4975608;28;20471;-67
2022/03/04 06:25:16;;;;;;;44.70;35.55;;;;;;;;;;4975427;28;20142;-67
2022/03/04 06:27:57;;;;;;;44.10;36.03;;;;;;;;;;4975374;28;20047;-67
2022/03/04 06:30:26;;;;;;;46.85;35.17;;;;;;;;;;4978773;28;20097;-66
2022/03/04 06:35:40;;;;;;;46.05;33.28;;;;;;;;;;4983813;28;20057;-67
2022/03/04 06:38:07;;;;;;;51.67;35.72;;;;;;;;;;4977087;28;20047;-67
2022/03/04 06:40:35;;;;;;;56.97;38.25;;;;;;;;;;4985591;28;20051;-68
2022/03/04 06:43:03;;;;;;;46.42;33.10;;;;;;;;;;4976089;28;20133;-67
2022/03/04 06:45:31;;;;;;;49.30;36.33;;;;;;;;;;4992272;28;20070;-67
2022/03/04 06:47:59;;;;;;;52.38;38.08;;;;;;;;;;4979763;28;20065;-66
2022/03/04 06:50:26;;;;;;;46.22;35.88;;;;;;;;;;4978021;28;20050;-67
2022/03/04 06:52:55;;;;;;;47.88;35.13;;;;;;;;;;4983721;28;20414;-67
2022/03/04 06:55:24;;;;;;;52.08;33.70;;;;;;;;;;4982320;28;20050;-67
2022/03/04 06:57:54;;;;;;;52.47;36.63;;;;;;;;;;4990310;28;20532;-69
2022/03/04 07:00:22;;;;;;;49.67;36.60;;;;;;;;;;4969207;28;20082;-69
2022/03/04 07:02:49;;;;;;;45.40;35.80;;;;;;;;;;4986281;28;20117;-68
2022/03/04 07:05:17;;;;;;;43.97;33.22;;;;;;;;;;4989669;28;20055;-68
2022/03/04 07:07:44;;;;;;;43.38;34.53;;;;;;;;;;4986803;28;20520;-68
2022/03/04 07:10:13;;;;;;;46.05;34.28;;;;;;;;;;4987846;28;20069;-67
2022/03/04 07:12:40;;;;;;;52.63;34.72;;;;;;;;;;4985375;28;20571;-65
2022/03/04 07:15:08;;;;;;;47.08;33.85;;;;;;;;;;4980121;28;20058;-65
2022/03/04 07:17:36;;;;;;;48.50;36.33;;;;;;;;;;4980532;28;20047;-65
2022/03/04 07:20:05;;;;;;;51.42;38.38;;;;;;;;;;4979024;28;20089;-67
2022/03/04 07:22:37;;;;;;;54.92;39.10;;;;;;;;;;4986507;28;20047;-64
2022/03/04 07:25:12;;;;;;;57.97;40.83;;;;;;;;;;4984006;28;20159;-65
2022/03/04 07:27:41;;;;;;;49.78;36.70;;;;;;;;;;4985888;28;20089;-69
2022/03/04 07:30:11;;;;;;;50.20;39.63;;;;;;;;;;4982309;28;20065;-69
2022/03/04 07:32:40;;;;;;;55.35;39.00;;;;;;;;;;4980223;28;20133;-68
2022/03/04 07:35:09;;;;;;;62.53;42.58;;;;;;;;;;4976554;28;20054;-67
2022/03/04 07:37:39;;;;;;;67.13;42.55;;;;;;;;;;4978705;28;20046;-66
2022/03/04 07:40:11;;;;;;;59.40;42.78;;;;;;;;;;4986211;28;20146;-67
2022/03/04 07:42:39;;;;;;;57.05;41.42;;;;;;;;;;4985259;28;20068;-68
2022/03/04 07:45:08;;;;;;;56.25;40.28;;;;;;;;;;4984133;28;20130;-68
2022/03/04 07:47:36;;;;;;;72.85;50.67;;;;;;;;;;4982630;28;20050;-68
2022/03/04 07:50:05;;;;;;;94.55;58.30;;;;;;;;;;4985172;28;20045;-68
2022/03/04 07:52:32;;;;;;;81.85;55.63;;;;;;;;;;4989888;28;20046;-69
2022/03/04 07:55:01;;;;;;;79.30;54.50;;;;;;;;;;4989373;28;20108;-70
2022/03/04 07:57:29;;;;;;;81.68;50.05;;;;;;;;;;4980791;28;20039;-68
2022/03/04 07:59:57;;;;;;;65.82;45.70;;;;;;;;;;4986897;28;20077;-69
2022/03/04 08:02:24;;;;;;;61.97;47.20;;;;;;;;;;4984783;28;20051;-69
2022/03/04 08:04:52;;;;;;;71.97;50.92;;;;;;;;;;4982869;28;20403;-69
2022/03/04 08:07:19;;;;;;;63.60;48.78;;;;;;;;;;4982044;28;20047;-68
2022/03/04 08:09:48;;;;;;;68.90;44.70;;;;;;;;;;4983315;28;20054;-70
2022/03/04 08:12:16;;;;;;;64.70;43.92;;;;;;;;;;4984043;28;20117;-69
2022/03/04 08:14:43;;;;;;;60.17;41.88;;;;;;;;;;4985093;28;20503;-69
2022/03/04 08:17:10;;;;;;;57.85;41.25;;;;;;;;;;4992039;28;20057;-69
2022/03/04 08:19:41;;;;;;;54.97;39.30;;;;;;;;;;4986757;28;20397;-69
2022/03/04 08:22:09;;;;;;;50.92;39.58;;;;;;;;;;4975124;28;20035;-69
2022/03/04 08:24:52;;;;;;;56.90;43.13;;;;;;;;;;4990449;28;20066;-68
2022/03/04 08:27:21;;;;;;;50.15;38.47;;;;;;;;;;4988193;28;20050;-68
2022/03/04 08:29:49;;;;;;;56.10;40.30;;;;;;;;;;4989615;28;20494;-68
2022/03/04 08:32:18;;;;;;;54.25;39.35;;;;;;;;;;4990453;28;20046;-68
2022/03/04 08:34:47;;;;;;;52.47;38.03;;;;;;;;;;4994578;28;20046;-68
2022/03/04 08:37:14;;;;;;;56.53;40.05;;;;;;;;;;4995349;28;20077;-68
2022/03/04 08:39:42;;;;;;;49.08;38.15;;;;;;;;;;4992741;28;20046;-68
2022/03/04 08:42:10;;;;;;;52.00;38.65;;;;;;;;;;4992322;28;20065;-68
2022/03/04 08:44:37;;;;;;;52.25;35.92;;;;;;;;;;4995573;28;20100;-68
2022/03/04 08:47:05;;;;;;;43.53;33.88;;;;;;;;;;4995113;28;20453;-68
2022/03/04 08:49:32;;;;;;;45.58;36.35;;;;;;;;;;4978995;28;20046;-68
2022/03/04 08:52:00;;;;;;;49.70;37.05;;;;;;;;;;4993005;28;20042;-68
2022/03/04 08:54:27;;;;;;;46.42;37.22;;;;;;;;;;4993756;28;20129;-68
2022/03/04 08:56:54;;;;;;;48.72;36.80;;;;;;;;;;4993090;28;20051;-68
2022/03/04 08:59:22;;;;;;;46.40;34.53;;;;;;;;;;4992541;28;20074;-68
2022/03/04 09:01:50;;;;;;;41.42;33.03;;;;;;;;;;4990117;28;20048;-68
2022/03/04 09:04:17;;;;;;;44.05;32.92;;;;;;;;;;4992929;28;20061;-68
2022/03/04 09:06:47;;;;;;;44.13;33.83;;;;;;;;;;4992561;28;20510;-68
2022/03/04 09:09:14;;;;;;;46.33;36.20;;;;;;;;;;4989137;28;20391;-68
2022/03/04 09:11:43;;;;;;;41.33;32.85;;;;;;;;;;4990881;28;20043;-68
2022/03/04 09:14:11;;;;;;;41.75;32.65;;;;;;;;;;4993316;28;20510;-69
2022/03/04 09:16:39;;;;;;;40.63;33.45;;;;;;;;;;4994099;28;20125;-68
2022/03/04 09:19:07;;;;;;;38.42;31.02;;;;;;;;;;4994209;28;20050;-69
2022/03/04 09:21:35;;;;;;;39.35;27.92;;;;;;;;;;4991516;28;20128;-68
2022/03/04 09:24:04;;;;;;;39.85;30.42;;;;;;;;;;4991241;28;20053;-68
2022/03/04 09:26:32;;;;;;;37.03;32.13;;;;;;;;;;4987766;28;20078;-69
2022/03/04 09:29:00;;;;;;;36.78;29.65;;;;;;;;;;4983173;28;20069;-69
2022/03/04 09:31:28;;;;;;;33.78;28.90;;;;;;;;;;4980355;28;20046;-68
2022/03/04 09:33:56;;;;;;;38.55;31.17;;;;;;;;;;4987851;28;20074;-69
2022/03/04 09:36:23;;;;;;;41.25;29.70;;;;;;;;;;4989999;28;20054;-68
2022/03/04 09:38:51;;;;;;;37.55;28.85;;;;;;;;;;4994378;28;20050;-69
2022/03/04 09:41:20;;;;;;;76.88;33.47;;;;;;;;;;4978612;28;20043;-68
2022/03/04 09:43:55;;;;;;;36.95;30.35;;;;;;;;;;4976865;28;20093;-68
2022/03/04 09:46:24;;;;;;;36.63;28.35;;;;;;;;;;4976634;28;20054;-67
2022/03/04 09:48:52;;;;;;;35.85;28.45;;;;;;;;;;4976829;28;20101;-67
2022/03/04 09:51:20;;;;;;;32.42;28.63;;;;;;;;;;4995419;28;20060;-68
2022/03/04 09:53:51;;;;;;;33.72;27.83;;;;;;;;;;4975468;28;20082;-67
2022/03/04 09:56:20;;;;;;;33.47;27.65;;;;;;;;;;4976962;28;20047;-67
2022/03/04 09:58:48;;;;;;;34.10;26.80;;;;;;;;;;4976349;28;20402;-67
2022/03/04 10:01:22;;;;;;;33.30;26.25;;;;;;;;;;4988429;28;20224;-67
2022/03/04 10:03:53;;;;;;;32.80;27.00;;;;;;;;;;4976134;28;20490;-67
2022/03/04 10:06:22;;;;;;;33.28;27.33;;;;;;;;;;4976680;28;20089;-68
2022/03/04 10:08:51;;;;;;;30.38;27.02;;;;;;;;;;4990726;28;20070;-67
2022/03/04 10:11:33;;;;;;;32.28;28.77;;;;;;;;;;4993796;28;20049;-68
2022/03/04 10:14:07;;;;;;;34.83;27.85;;;;;;;;;;4994483;28;20522;-67
2022/03/04 10:16:37;;;;;;;35.10;30.70;;;;;;;;;;4993557;28;20061;-67
2022/03/04 10:19:17;;;;;;;42.08;31.85;;;;;;;;;;4976279;28;20081;-67
2022/03/04 10:21:50;;;;;;;37.75;31.20;;;;;;;;;;4989514;28;20054;-67
2022/03/04 10:24:23;;;;;;;35.28;30.08;;;;;;;;;;4994620;28;20096;-68
2022/03/04 10:27:02;;;;;;;38.60;28.77;;;;;;;;;;4993690;28;20050;-67
2022/03/04 10:29:37;;;;;;;43.60;34.87;;;;;;;;;;4994183;28;20056;-67
2022/03/04 10:32:15;;;;;;;39.88;31.20;;;;;;;;;;4995126;28;20054;-67
2022/03/04 10:34:59;;;;;;;38.67;31.67;;;;;;;;;;4994802;28;20046;-67
2022/03/04 10:37:54;;;;;;;41.22;34.05;;;;;;;;;;4994856;28;20058;-67
2022/03/04 10:40:42;;;;;;;43.90;34.58;;;;;;;;;;4993540;28;20082;-68
2022/03/04 10:43:23;;;;;;;42.25;34.10;;;;;;;;;;4993895;28;20049;-68
2022/03/04 10:46:04;;;;;;;36.75;31.10;;;;;;;;;;4994835;28;20431;-68
2022/03/04 10:48:32;;;;;;;36.88;31.42;;;;;;;;;;4977556;28;20137;-68
2022/03/04 10:51:04;;;;;;;35.95;32.25;;;;;;;;;;4992691;28;20046;-68
2022/03/04 10:53:34;;;;;;;37.05;32.00;;;;;;;;;;4994563;28;20050;-68
2022/03/04 10:56:07;;;;;;;34.75;29.67;;;;;;;;;;4994362;28;20212;-68
2022/03/04 10:58:40;;;;;;;35.67;30.73;;;;;;;;;;4993263;28;20077;-68
2022/03/04 11:01:17;;;;;;;39.53;31.42;;;;;;;;;;4993279;28;20054;-68
2022/03/04 11:03:45;;;;;;;39.60;33.17;;;;;;;;;;4993979;28;20050;-68
2022/03/04 11:06:15;;;;;;;35.42;31.33;;;;;;;;;;4993328;28;20050;-68
2022/03/04 11:08:43;;;;;;;36.95;31.15;;;;;;;;;;4994082;28;20085;-68
2022/03/04 11:11:10;;;;;;;35.80;31.60;;;;;;;;;;4994144;28;20142;-68
2022/03/04 11:13:38;;;;;;;35.00;29.92;;;;;;;;;;4992578;28;20069;-68
2022/03/04 11:16:07;;;;;;;33.85;29.73;;;;;;;;;;4993801;28;20046;-68
2022/03/04 11:18:35;;;;;;;37.80;30.25;;;;;;;;;;4993704;28;20058;-68
2022/03/04 11:21:04;;;;;;;32.92;28.05;;;;;;;;;;4993915;28;20042;-68
2022/03/04 11:23:53;;;;;;;34.28;29.02;;;;;;;;;;4992715;28;20520;-68
2022/03/04 11:26:21;;;;;;;37.67;31.02;;;;;;;;;;4993182;28;20050;-68
2022/03/04 11:28:51;;;;;;;34.65;27.48;;;;;;;;;;4993867;28;20042;-68
2022/03/04 11:31:21;;;;;;;33.38;29.67;;;;;;;;;;4992452;28;20609;-68
2022/03/04 11:33:49;;;;;;;35.92;29.17;;;;;;;;;;4977579;28;20050;-68
2022/03/04 11:36:18;;;;;;;34.05;27.98;;;;;;;;;;4993703;28;20437;-68
2022/03/04 11:38:49;;;;;;;40.90;29.58;;;;;;;;;;4993753;28;20125;-68
2022/03/04 11:41:17;;;;;;;39.55;30.75;;;;;;;;;;4987387;28;20050;-68
2022/03/04 11:44:13;;;;;;;36.08;29.73;;;;;;;;;;4974560;28;20138;-68
2022/03/04 11:46:56;;;;;;;32.20;28.75;;;;;;;;;;4987006;28;20058;-68
2022/03/04 11:49:26;;;;;;;33.42;29.35;;;;;;;;;;4993629;28;20120;-68
2022/03/04 11:52:11;;;;;;;31.75;28.27;;;;;;;;;;4989697;28;20043;-68
2022/03/04 11:55:06;;;;;;;30.75;27.55;;;;;;;;;;4983342;28;20058;-68
2022/03/04 11:57:44;;;;;;;32.47;28.23;;;;;;;;;;4979624;28;20043;-68
2022/03/04 12:00:11;;;;;;;33.20;27.73;;;;;;;;;;4988329;28;20050;-68
2022/03/04 12:02:48;;;;;;;34.58;27.08;;;;;;;;;;4993364;28;20073;-68
2022/03/04 12:05:19;;;;;;;35.58;28.50;;;;;;;;;;4992998;28;20058;-68
2022/03/04 12:07:55;;;;;;;33.28;27.98;;;;;;;;;;4993534;28;20074;-68
2022/03/04 12:10:27;;;;;;;37.08;31.23;;;;;;;;;;4993115;28;20093;-68
2022/03/04 12:13:03;;;;;;;33.03;29.38;;;;;;;;;;4992475;28;20054;-68
2022/03/04 12:15:38;;;;;;;32.70;27.88;;;;;;;;;;4993345;28;20046;-68
2022/03/04 12:18:36;;;;;;;34.28;27.80;;;;;;;;;;4987828;28;20062;-68
2022/03/04 12:21:23;;;;;;;31.98;26.98;;;;;;;;;;4992375;28;20082;-68
2022/03/04 12:23:52;;;;;;;32.97;28.80;;;;;;;;;;4992278;28;20502;-68
2022/03/04 12:26:43;;;;;;;37.67;29.75;;;;;;;;;;4992143;28;20106;-68
2022/03/04 12:29:15;;;;;;;32.22;28.73;;;;;;;;;;4993391;28;20050;-68
2022/03/04 12:31:44;;;;;;;34.20;28.85;;;;;;;;;;4993250;28;20112;-68
2022/03/04 12:34:20;;;;;;;32.35;28.27;;;;;;;;;;4993453;28;20112;-68
2022/03/04 12:36:49;;;;;;;30.30;25.70;;;;;;;;;;4995305;28;20514;-68
2022/03/04 12:39:17;;;;;;;28.33;25.23;;;;;;;;;;4995474;28;20406;-68
2022/03/04 12:41:45;;;;;;;31.17;25.90;;;;;;;;;;4995558;28;20109;-68
2022/03/04 12:44:13;;;;;;;29.60;26.45;;;;;;;;;;4992022;28;20049;-68
2022/03/04 12:46:43;;;;;;;29.65;25.52;;;;;;;;;;4977659;28;20129;-68
2022/03/04 12:49:13;;;;;;;33.53;26.50;;;;;;;;;;4991122;28;20054;-68
2022/03/04 12:51:45;;;;;;;32.50;27.75;;;;;;;;;;4996683;28;20082;-68
2022/03/04 12:54:22;;;;;;;32.88;26.83;;;;;;;;;;4995544;28;20141;-68
2022/03/04 12:56:50;;;;;;;30.17;26.00;;;;;;;;;;4995692;28;20053;-68
2022/03/04 12:59:17;;;;;;;35.08;25.17;;;;;;;;;;4995495;28;20457;-68
2022/03/04 13:01:50;;;;;;;28.75;25.67;;;;;;;;;;4996664;28;20068;-68
2022/03/04 13:04:17;;;;;;;30.55;26.92;;;;;;;;;;4995000;28;20490;-68
2022/03/04 13:06:46;;;;;;;31.70;26.58;;;;;;;;;;4996415;28;20046;-68
2022/03/04 13:09:13;;;;;;;30.88;27.23;;;;;;;;;;4995148;28;20085;-68
2022/03/04 13:11:42;;;;;;;29.05;24.67;;;;;;;;;;4995185;28;20046;-68
2022/03/04 13:14:18;;;;;;;26.83;23.92;;;;;;;;;;4996121;28;20054;-68
2022/03/04 13:17:10;;;;;;;28.92;24.33;;;;;;;;;;4995268;28;20073;-68
2022/03/04 13:19:39;;;;;;;27.60;24.55;;;;;;;;;;4993903;28;20524;-67
2022/03/04 13:22:12;;;;;;;28.10;24.38;;;;;;;;;;4995371;28;20101;-68
2022/03/04 13:24:41;;;;;;;27.05;24.02;;;;;;;;;;4996132;28;20082;-68
2022/03/04 13:27:10;;;;;;;29.00;24.38;;;;;;;;;;4996393;28;20062;-68
2022/03/04 13:29:41;;;;;;;27.35;22.65;;;;;;;;;;4995536;28;20130;-67
2022/03/04 13:32:13;;;;;;;27.30;22.70;;;;;;;;;;4995033;28;20074;-67
2022/03/04 13:34:49;;;;;;;29.10;25.10;;;;;;;;;;4994895;28;20077;-68
2022/03/04 13:37:18;;;;;;;29.17;23.52;;;;;;;;;;4994649;28;20126;-69
2022/03/04 13:39:56;;;;;;;26.33;22.75;;;;;;;;;;4995987;28;20081;-67
2022/03/04 13:42:31;;;;;;;36.60;24.88;;;;;;;;;;4995580;28;20137;-68
2022/03/04 13:45:09;;;;;;;29.40;23.25;;;;;;;;;;4994566;28;20069;-67
2022/03/04 13:47:53;;;;;;;27.75;22.65;;;;;;;;;;4995144;28;20046;-67
2022/03/04 13:50:26;;;;;;;31.13;22.70;;;;;;;;;;4995897;28;20455;-67
2022/03/04 13:52:59;;;;;;;28.98;23.08;;;;;;;;;;4995635;28;20058;-68
2022/03/04 13:55:51;;;;;;;28.02;21.65;;;;;;;;;;4990989;28;20052;-70
2022/03/04 13:58:32;;;;;;;28.42;22.27;;;;;;;;;;4992876;28;20141;-67
2022/03/04 14:01:08;;;;;;;27.25;22.73;;;;;;;;;;4995614;28;20056;-68
2022/03/04 14:03:47;;;;;;;25.45;22.10;;;;;;;;;;4993850;28;20133;-67
2022/03/04 14:06:17;;;;;;;29.50;23.48;;;;;;;;;;4994296;28;20056;-67
2022/03/04 14:08:45;;;;;;;33.00;25.10;;;;;;;;;;4994318;28;20074;-67
2022/03/04 14:11:13;;;;;;;31.48;24.52;;;;;;;;;;4995580;28;20138;-70
2022/03/04 14:13:42;;;;;;;25.52;21.75;;;;;;;;;;4993794;28;20133;-69
2022/03/04 14:16:11;;;;;;;27.70;21.40;;;;;;;;;;4994419;28;20054;-70
2022/03/04 14:18:38;;;;;;;28.10;22.30;;;;;;;;;;4994315;28;20046;-69
2022/03/04 14:21:09;;;;;;;27.42;22.25;;;;;;;;;;4995284;28;20050;-70
2022/03/04 14:23:40;;;;;;;30.77;23.73;;;;;;;;;;4993599;28;20065;-69
2022/03/04 14:26:09;;;;;;;28.40;23.38;;;;;;;;;;4993975;28;20054;-70
2022/03/04 14:28:36;;;;;;;25.75;20.65;;;;;;;;;;4993459;28;20077;-70
2022/03/04 14:31:10;;;;;;;26.20;22.35;;;;;;;;;;4988478;28;20457;-69
2022/03/04 14:33:37;;;;;;;29.23;22.20;;;;;;;;;;4995133;28;20132;-70
2022/03/04 14:36:05;;;;;;;23.33;20.40;;;;;;;;;;4987252;28;20061;-70